aviador You're here:

ETIK Decoded Metar

ILLESHEIM in GERMANY
Report Time2017-09-25 15:56:00
UTC Time2017-09-25 17:01:44
Flight Rules vfr VFR
Wind060° at 06 kt
W.Rank060° ranks 10
Current wind is above 060° avg. (4.3)
Visibility9999 m
Phenomena:N/A
Clouds:Scattered 070 Hf
Expected CloudBase > 2,400 ft AGL from Temp-Dew spread
CeilingNone
Temp16°C (ISA +3)
Dew Point10°C (68% RH)
AAT13.9°C
QNH1020 hPa
Density Alt1,368 ft
Elevation1,066 ft
Report Wrong Elevation
Raw Report
METAR ETIK 251556Z 06006KT 9999 SCT070 16/10 A3012 RMK A02A SLP201
$=

Extra information for ETIK:More info

Metar Taf Metar & Taf Last 4 Metars F.Rules Stats Wind Profile Meteogram Temp Stats Airport Information Weather charts Add Link Nearby VenuesMetar ALERT Operation Metar Decoded Social comments